x

Los Angeles Pier F, Ca - 9410670 (pfxc1) Weather Station

4:18 - Tue 28th Mar 2017 All times are PDT. -7 hours from GMT.

  • Wind
    3mph, 6mph gusts
  • Air Temp 58°f
  • Sea Pressure 1015.1mb
  • Los Angeles Pier F, Ca - 9410670
  • Los Angeles Pier F, Ca - 9410670

More Historic Weather Station data

Upgrade to MSW Pro to gain access to the past 30 days of data for over 8000 Wavebouys and Weather Stations around the globe.

Join Pro

Comparision Forecast

View Surf forecast
   
mar. 03/28 4:18 3 6 mph 1015.1mb 58f
4:12 3 5 mph 1015.2mb 58f
4:06 3
mph
1015.2mb 58f
4:00 3 5 mph 1015.1mb 58f
3:54 3 5 mph 1015.3mb 58f
3:48 2 5 mph 1015.2mb 58f
3:42 5 7 mph 1014.9mb 58f
3:36 5 6 mph 1014.9mb 58f
3:30 3 6 mph 1014.9mb 58f
3:24 5 6 mph 1014.9mb 58f
3:18 5
mph
1015mb 58f
3:12 5 6 mph 1015mb 58f
3:06 6 7 mph 1015mb 58f
3:00 7 9 mph 1015mb 58f
2:54 8 10 mph 1015.1mb 58f
2:48 8 10 mph 1015.1mb 58f
2:42 9 10 mph 1015.2mb 58f
2:36 9 11 mph 1015.2mb 59f
2:30 10 14 mph 1015.1mb 59f
2:24 9 14 mph 1015.2mb 59f
2:18 7 8 mph 1015.1mb 59f
2:12 7 8 mph 1015.1mb 59f
2:06 6 9 mph 1015.1mb 59f
2:00 6 8 mph 1015.1mb 59f
1:54 6 8 mph 1015.2mb 59f
1:48 6 7 mph 1015.3mb 59f
1:42 7 8 mph 1015.3mb 59f
1:36 6 7 mph 1015.3mb 59f
1:30 5 7 mph 1015.2mb 60f
1:24 5 6 mph 1015.3mb 60f
1:18 6 8 mph 1015.2mb 60f
1:12 7 10 mph 1015mb 62f
1:06 7 15 mph 1015mb 64f
1:00 11 16 mph 1014.9mb 64f
12:54 11 16 mph 1014.9mb 63f
12:48 9 13 mph 1015mb 63f
12:42 9 10 mph 1015mb 63f
12:36 10 15 mph 1014.9mb 63f
12:30 11 14 mph 1014.8mb 63f
12:24 13 16 mph 1014.8mb 63f
12:18 14 16 mph 1015mb 63f
12:12 13 15 mph 1015mb 64f
12:06 13 18 mph 1014.8mb 64f
12:00 17 23 mph 1014.8mb 65f
lun. 03/27 11:54 21 26 mph 1014.8mb 65f
11:48 20 26 mph 1014.9mb 65f
11:42 14 18 mph 1014.9mb 64f
11:36 15 20 mph 1014.8mb 64f
11:30 16 21 mph 1014.8mb 64f
11:24 15 20 mph 1014.8mb 64f
11:18 18 25 mph 1014.8mb 64f
11:12 21 24 mph 1014.8mb 64f
11:06 22 26 mph 1014.7mb 65f
11:00 22 30 mph 1014.7mb 65f
10:54 20 28 mph 1014.5mb 65f
10:48 17 22 mph 1014.6mb 65f
10:42 24 31 mph 1014.5mb 65f
10:36 21 29 mph 1014.4mb 65f
10:30 17 22 mph 1014.4mb 65f
10:24 15 20 mph 1014.4mb 64f
10:18 16 20 mph 1014.4mb 64f
10:12 15 18 mph 1014.6mb 64f
10:06 15 17 mph 1014.7mb 64f
10:00 14 18 mph 1014.7mb 65f
9:54 14 22 mph 1014.6mb 65f
9:48 20 25 mph 1014.2mb 65f
9:42 18 24 mph 1014.1mb 64f
9:36 16 21 mph 1014.3mb 64f
9:30 21 26 mph 1014mb 64f
9:24 17 22 mph 1014mb 63f
9:18 17 28 mph 1013.9mb 63f
9:12 15 22 mph 1013.9mb 62f
9:06 18 23 mph 1013.9mb 62f
9:00 17 21 mph 1013.7mb 63f
8:54 21 24 mph 1013.6mb 63f
8:48 21 24 mph 1013.5mb 63f
8:42 18 23 mph 1013.4mb 63f
8:36 15 20 mph 1013.4mb 62f
8:30 14 17 mph 1013.4mb 62f
8:24 15 20 mph 1013.3mb 62f
8:18 15 20 mph 1013.2mb 63f
8:12 16 20 mph 1013.2mb 63f
8:06 15 18 mph 1013.2mb 63f
8:00 15 18 mph 1013.1mb 63f
7:54 13 17 mph 1013.1mb 63f
7:48 14 17 mph 1013.2mb 63f
7:42 13 15 mph 1013.2mb 64f
7:36 10 15 mph 1013.1mb 64f
7:30 8 11 mph 1013.1mb 64f
7:24 11 14 mph 1013mb 65f
7:18 10 14 mph 1012.9mb 65f
7:12 9 13 mph 1012.8mb 65f
7:06 9 16 mph 1012.8mb 65f
7:00 10 17 mph 1012.7mb 66f
6:54 14 20 mph 1012.6mb 66f
6:48 14 20 mph 1012.6mb 67f
6:42 16 20 mph 1012.5mb 66f
6:36 20 23 mph 1012.1mb 66f
6:30 21 25 mph 1012.1mb 66f
6:24 20 26 mph 1011.9mb 66f
6:18 23 30 mph 1011.8mb 65f
6:12 23 36 mph 1011.8mb 65f
6:06 26 33 mph 1011.7mb 65f
6:00 30 34 mph 1011.7mb 65f
5:54 29 33 mph 1011.9mb 65f
5:48 29 32 mph 1012.1mb 65f
5:42 25 34 mph 1012.3mb 66f
5:36 23 28 mph 1012.6mb 66f
5:30 21 28 mph 1012.9mb 66f
5:24 20 28 mph 1013mb 67f
5:18 18 23 mph 1013.1mb 67f
5:12 21 23 mph 1012.9mb 67f
5:06 23 26 mph 1012.8mb 67f
5:00 23 28 mph 1013mb 68f
4:54 22 26 mph 1013mb 68f
4:48 20 23 mph 1013.1mb 68f
4:42 21 26 mph 1013.1mb 68f
4:36 24 29 mph 1013.1mb 68f
4:30 22 25 mph 1013.1mb 68f
4:24 21 24 mph 1013.1mb 68f
4:18 17 23 mph 1013.2mb 69f
4:12 16 21 mph 1013.2mb 69f
4:06 16 20 mph 1013.2mb 67f
4:00 14 18 mph 1013.3mb 68f
3:54 15 21 mph 1013.5mb 68f
3:48 16 21 mph 1013.4mb 67f
3:42 13 16 mph 1013.6mb 67f
3:36 15 21 mph 1013.6mb 67f
3:30 16 21 mph 1013.5mb 67f
3:24 14 17 mph 1013.6mb 67f
3:18 14 18 mph 1013.7mb 68f
3:12 16 18 mph 1013.7mb 69f
3:06 16 18 mph 1013.6mb 68f
3:00 15 18 mph 1013.7mb 69f
2:54 14 20 mph 1014.1mb 70f
2:48 17 21 mph 1014mb 70f
2:42 15 20 mph 1013.8mb 71f
2:36 15 18 mph 1013.8mb 70f
2:30 14 18 mph 1013.8mb 70f
2:24 14 17 mph 1014mb 70f
2:18 14 20 mph 1013.9mb 69f
2:12 13 20 mph 1013.9mb 69f
2:06 15 21 mph 1013.9mb 70f
2:00 14 20 mph 1014mb 69f
1:48 11 16 mph 1014.3mb 67f
1:42 16 18 mph 1014.3mb 66f
1:36 16 20 mph 1014.3mb 65f
1:30 17 21 mph 1014.4mb 66f
1:24 14 18 mph 1014.6mb 66f
1:18 15 20 mph 1014.6mb 66f
1:12 11 16 mph 1014.9mb 67f
1:06 15 18 mph 1014.8mb 65f
1:00 17 20 mph 1014.9mb 64f
12:54 18 22 mph 1015mb 64f
12:48 14 18 mph 1015.2mb 63f
12:42 16 17 mph 1015.4mb 63f
12:36 15 17 mph 1015.4mb 63f
12:30 15 17 mph 1015.6mb 63f
12:24 15 16 mph 1015.8mb 64f
12:18 15 16 mph 1015.7mb 64f
12:12 15 16 mph 1015.8mb 64f
12:06 13 15 mph 1015.8mb 64f
12:00 13
mph
1015.8mb 64f
11:54 11 13 mph 1016mb 64f
11:48 11 13 mph 1016.1mb 64f
11:42 10 11 mph 1016.1mb 64f
11:36 11 13 mph 1016.1mb 64f
11:30 10 11 mph 1016.3mb 64f
11:24 9 10 mph 1016.3mb 63f
11:18 8 9 mph 1016.4mb 62f
11:12 7 8 mph 1016.2mb 60f
11:06 7 8 mph 1016.3mb 61f
11:00 7
mph
1016.4mb 60f
10:54 7
mph
1016.3mb 60f
10:48 7
mph
1016.3mb 60f
10:42 7
mph
1016.3mb 60f
10:36 6 7 mph 1016.2mb 60f
10:30 6
mph
1016.2mb 62f
10:24 6
mph
1016.5mb 64f
10:18 5 6 mph 1016.7mb 62f
10:12 5
mph
1016.6mb 62f
10:06 3 5 mph 1016.6mb 63f
10:00 5
mph
1016.6mb 64f
9:54 3 5 mph 1016.8mb 64f
9:48 5
mph
1016.8mb 64f
9:42 5 6 mph 1016.9mb 63f
9:36 5 6 mph 1016.6mb 61f
9:30 5 6 mph 1016.4mb 60f
9:24 2 5 mph 1016.6mb 62f
9:18 1 3 mph 1017mb 63f
9:12 3
mph
1017.1mb 63f
9:06 1 3 mph 1016.8mb 61f
9:00  -  1 mph 1016.6mb 61f
8:54 1 2 mph 1016.8mb 61f
8:48 2 3 mph 1017mb 61f
8:42 2 3 mph 1016.9mb 60f
8:36 2
mph
1016.5mb 59f
8:30 2
mph
1016.4mb 59f
8:24 2 3 mph 1016.3mb 58f
8:18 2 3 mph 1016.3mb 58f
8:12 2 3 mph 1016.1mb 58f
8:06 3
mph
1016.2mb 58f
8:00 2 3 mph 1016.2mb 58f
7:54  -  1 mph 1016.2mb 58f
7:48  -  1 mph 1016.1mb 57f
7:42 1 2 mph 1016mb 57f
7:36 2 3 mph 1015.8mb 56f
7:30 3
mph
1015.8mb 56f
7:24 5 6 mph 1015.8mb 56f
7:18 3 5 mph 1015.8mb 56f
7:12 5 6 mph 1015.8mb 56f
7:06 2 5 mph 1015.8mb 56f
7:00 3 6 mph 1015.8mb 56f
6:54 3 5 mph 1015.8mb 56f
6:48 2 5 mph 1015.8mb 56f
6:42 2 5 mph 1015.6mb 56f
6:36 3 5 mph 1015.5mb 56f
6:30 2 3 mph 1015.5mb 57f
6:24 2 3 mph 1015.6mb 56f
6:18 2 3 mph 1015.6mb 57f
6:12 1 3 mph 1015.5mb 57f
6:06  -  2 mph 1015.5mb 57f
6:00  -  2 mph 1015.6mb 57f
5:54 1
mph
1015.5mb 57f
5:48  -  1 mph 1015.6mb 57f
5:42  -  1 mph 1015.6mb 57f
5:36 1 2 mph 1015.5mb 58f
5:30 2 3 mph 1015.5mb 58f
5:24 2 3 mph 1015.5mb 58f
5:18 3
mph
1015.4mb 58f
5:12 3
mph
1015.4mb 58f
5:06 3
mph
1015.3mb 58f
5:00 3 5 mph 1015.3mb 58f
4:54 5 6 mph 1015.3mb 58f
4:48 6 7 mph 1015.2mb 58f
4:42 7
mph
1015.2mb 58f
4:36 7
mph
1015.2mb 58f
4:30 6 7 mph 1015.2mb 58f
4:24 5 6 mph 1015.2mb 58f
4:18 5 6 mph 1015.4mb 58f
4:12 6
mph
1015.3mb 58f
4:06 6 7 mph 1015.3mb 58f
4:00 5 7 mph 1015.5mb 58f
3:54 3 5 mph 1015.6mb 58f
3:48 3 5 mph 1015.6mb 58f
3:42 3 5 mph 1015.6mb 58f
3:36 3 5 mph 1015.6mb 58f
3:30 3 5 mph 1015.6mb 58f
3:24 5 6 mph 1015.6mb 58f
3:18 5 6 mph 1015.7mb 58f
3:12 5 6 mph 1015.8mb 58f
3:06 5 6 mph 1015.9mb 58f
3:00 5
mph
1016mb 58f
2:54 5 6 mph 1016mb 58f
2:48 5
mph
1016mb 58f
2:42 3 5 mph 1016mb 58f
2:36 5 6 mph 1016mb 58f
2:30 5 7 mph 1016.1mb 58f
2:24 5 6 mph 1016.1mb 58f
2:18 5 6 mph 1016.1mb 58f
2:12 5
mph
1016.2mb 58f
2:06 3 5 mph 1016.2mb 58f
2:00 3 5 mph 1016.2mb 58f
1:54 3 5 mph 1016.2mb 58f
1:48 3
mph
1016.2mb 58f
1:42 3
mph
1016.2mb 58f
1:36 2 3 mph 1016.3mb 58f
1:30 3
mph
1016.3mb 58f
1:24 3
mph
1016.3mb 58f
1:18 2 3 mph 1016.4mb 58f
1:12 2 3 mph 1016.4mb 58f
1:06 2 3 mph 1016.3mb 58f
1:00 3
mph
1016.2mb 58f
12:54 3 5 mph 1016.2mb 58f
12:48 3 5 mph 1016.2mb 58f
12:42 3 5 mph 1016.2mb 58f
12:36 5
mph
1016.2mb 59f
12:30 5 6 mph 1016.2mb 59f
12:24 5 6 mph 1016.3mb 58f
12:18 5
mph
1016.4mb 58f
12:12 3 5 mph 1016.4mb 59f
12:06 3
mph
1016.5mb 59f
12:00 3
mph
1016.6mb 59f
dim. 03/26 11:54 2
mph
1016.6mb 59f
11:48 2
mph
1016.5mb 59f
11:42 2 3 mph 1016.6mb 59f
11:36 3
mph
1016.7mb 59f
11:30 2 3 mph 1016.8mb 59f
11:24 2 3 mph 1016.7mb 59f
11:18 2 3 mph 1016.8mb 59f
11:12 3
mph
1016.7mb 59f
11:06 5 6 mph 1016.7mb 59f
11:00 5 6 mph 1016.6mb 59f
10:54 6 7 mph 1016.6mb 59f
10:48 7 8 mph 1016.6mb 59f
10:42 7 8 mph 1016.6mb 59f
10:36 8 9 mph 1016.7mb 59f
10:30 7 9 mph 1016.7mb 59f
10:24 7 9 mph 1016.7mb 59f
10:18 8 10 mph 1016.7mb 59f
10:12 7 8 mph 1016.7mb 59f
10:06 7 8 mph 1016.7mb 60f
10:00 3 7 mph 1016.7mb 59f
9:54 3 5 mph 1016.6mb 59f
9:48 5 6 mph 1016.6mb 59f
9:42 5 7 mph 1016.6mb 59f
9:36 6 8 mph 1016.6mb 60f
9:30 6 8 mph 1016.6mb 60f
9:24 7 9 mph 1016.5mb 60f
9:18 8 10 mph 1016.5mb 60f
9:12 9 11 mph 1016.4mb 60f
9:06 8 10 mph 1016.4mb 60f
9:00 7 9 mph 1016.4mb 60f
8:54 7 8 mph 1016.4mb 60f
8:48 8 10 mph 1016.3mb 60f
8:42 7 9 mph 1016.2mb 61f
8:36 6 8 mph 1016.2mb 61f
8:30 6
mph
1016.2mb 61f
8:24 6 7 mph 1016.1mb 61f
8:18 7 8 mph 1016.1mb 61f
8:12 6 7 mph 1016mb 62f
8:06 6 8 mph 1016mb 62f
8:00 7 9 mph 1016.1mb 61f
7:54 5 8 mph 1016.1mb 61f
7:48 7 10 mph 1016mb 61f
7:42 7 9 mph 1015.9mb 61f
7:36 8 10 mph 1015.9mb 61f
7:30 7 9 mph 1015.9mb 61f
7:24 6 8 mph 1015.8mb 61f
7:18 6 9 mph 1015.8mb 61f
7:12 8 9 mph 1015.8mb 61f
7:06 9 11 mph 1015.7mb 61f
7:00 10 13 mph 1015.6mb 61f
6:54 9 13 mph 1015.6mb 62f
6:48 10 14 mph 1015.6mb 62f
6:42 10 14 mph 1015.6mb 62f
6:36 8 13 mph 1015.5mb 63f
6:30 10 14 mph 1015.5mb 63f
6:24 11 14 mph 1015.5mb 63f
6:18 13 15 mph 1015.6mb 63f
6:12 13 16 mph 1015.5mb 63f
6:06 13 15 mph 1015.5mb 64f
6:00 14 15 mph 1015.5mb 64f
5:54 13 15 mph 1015.5mb 64f
5:48 11 14 mph 1015.5mb 65f
5:42 10 13 mph 1015.6mb 65f
5:36 9 11 mph 1015.6mb 66f
5:30 9 11 mph 1015.7mb 66f
5:24 9 13 mph 1015.7mb 66f
5:18 8 10 mph 1015.8mb 67f
5:12 8 9 mph 1015.8mb 66f
5:06 9 10 mph 1015.8mb 66f
5:00 8 10 mph 1015.8mb 66f
4:54 9 10 mph 1015.8mb 66f
4:48 8 11 mph 1016.1mb 65f
4:42 10 14 mph 1016.1mb 65f
4:36 13 14 mph 1016mb 64f
4:30 11 14 mph 1016mb 65f
4:24 10 14 mph 1016.2mb 65f
4:18 13 16 mph 1016.3mb 64f
4:12 10 16 mph 1016.4mb 64f
4:06 15 17 mph 1016.3mb 64f
4:00 14 17 mph 1016.4mb 64f
3:54 15 17 mph 1016.5mb 64f
3:48 16 18 mph 1016.5mb 64f
3:42 16 18 mph 1016.6mb 64f
3:36 15 18 mph 1016.6mb 64f
3:30 15 18 mph 1016.7mb 64f
3:24 14 17 mph 1016.7mb 64f
3:18 13 16 mph 1016.8mb 64f
3:12 14 16 mph 1016.9mb 64f
3:06 14 17 mph 1016.8mb 64f
3:00 13 15 mph 1016.9mb 64f
2:54 13 15 mph 1017.1mb 64f
2:48 14 15 mph 1016.9mb 64f
2:42 13 14 mph 1017mb 65f
2:36 13 14 mph 1017.2mb 64f
2:30 13 14 mph 1017.1mb 64f
2:24 13 14 mph 1017.2mb 64f
2:18 13 14 mph 1017.3mb 63f
2:12 11 13 mph 1017.4mb 63f
2:06 11 13 mph 1017.5mb 63f
2:00 11 13 mph 1017.4mb 62f
1:54 11 13 mph 1017.3mb 61f
1:48 11 13 mph 1017.2mb 61f
1:42 10 11 mph 1017.2mb 61f
1:36 10 11 mph 1017.2mb 61f
1:30 10 11 mph 1017.3mb 61f
1:24 10 11 mph 1017.3mb 61f
1:18 10 11 mph 1017.4mb 61f
1:12 9 11 mph 1017.4mb 61f
1:06 9 10 mph 1017.4mb 62f
1:00 9
mph
1017.6mb 62f
12:54 9 10 mph 1017.6mb 62f
12:48 9 10 mph 1017.6mb 62f
12:42 9
mph
1017.7mb 62f
12:36 8 9 mph 1017.7mb 62f
12:30 8 9 mph 1017.7mb 62f
12:24 8 9 mph 1017.7mb 63f
12:18 9 10 mph 1017.7mb 63f
12:12 9 10 mph 1017.6mb 63f
12:06 9
mph
1017.6mb 63f
12:00 8 9 mph 1017.7mb 63f
11:54 8 9 mph 1017.9mb 63f
11:48 7 8 mph 1018mb 63f
11:42 8
mph
1017.9mb 63f
11:36 8 9 mph 1017.9mb 63f
11:30 7 8 mph 1017.9mb 63f
11:24 7 8 mph 1018mb 63f
11:18 7 8 mph 1017.9mb 63f
11:12 7 8 mph 1017.8mb 63f
11:06 7 8 mph 1017.8mb 63f
11:00 7 8 mph 1017.8mb 63f
10:54 7 8 mph 1017.8mb 63f
10:48 7
mph
1017.8mb 63f
10:42 6
mph
1017.9mb 64f
10:36 5 6 mph 1018mb 64f
10:30 6
mph
1017.9mb 63f
10:24 6
mph
1017.8mb 63f
10:18 6
mph
1017.9mb 63f
10:12 5 6 mph 1017.9mb 63f
10:06 6
mph
1018mb 63f
10:00 6
mph
1018.1mb 62f
9:54 5 6 mph 1017.7mb 60f
9:48 5 6 mph 1017.5mb 60f
9:42 6 7 mph 1017.4mb 61f
9:36 5 7 mph 1017.3mb 61f
9:30 2 3 mph 1017.3mb 61f
9:24 2 5 mph 1017.4mb 62f
9:18 5 7 mph 1017.2mb 62f
9:12 5 7 mph 1017.2mb 62f
9:06 5 7 mph 1017mb 62f
9:00 5 7 mph 1017.2mb 62f
8:54 3 6 mph 1017mb 61f
8:48 5 6 mph 1016.9mb 61f
8:42 6 8 mph 1016.7mb 60f
8:36 7 8 mph 1016.6mb 60f
8:30 6 7 mph 1016.7mb 60f
8:24 6 8 mph 1016.7mb 60f
8:18 6 7 mph 1016.8mb 60f
8:12 3 6 mph 1016.8mb 60f
8:06 5 6 mph 1016.8mb 60f
8:00 5 6 mph 1016.7mb 59f
7:54 3 6 mph 1016.9mb 59f
7:48 5 7 mph 1016.8mb 59f
7:42 5 6 mph 1016.7mb 59f
7:36 5 6 mph 1016.8mb 59f
7:30 3 5 mph 1016.7mb 58f
7:24 3 6 mph 1016.5mb 58f
7:18 3 6 mph 1016.4mb 58f
7:12 5 6 mph 1016.4mb 58f
7:06 5 6 mph 1016.3mb 58f
7:00 5 6 mph 1016.4mb 58f
6:54 3 6 mph 1016.3mb 58f
6:48 3 5 mph 1016.3mb 58f
6:42 3 5 mph 1016.3mb 58f
6:36 5
mph
1016.2mb 57f
6:30 3 6 mph 1016.2mb 57f
6:24 1 2 mph 1016.2mb 57f
6:18 1 2 mph 1016.1mb 57f
6:12 1 2 mph 1016mb 57f
6:06 1 2 mph 1015.9mb 57f
6:00 2
mph
1015.9mb 57f
5:54 1 2 mph 1015.9mb 57f
5:48 1 2 mph 1015.9mb 56f
5:42  -  1 mph 1015.9mb 56f
5:36 2
mph
1015.8mb 56f
5:30 1 2 mph 1015.8mb 56f
5:24 2
mph
1015.8mb 56f
5:18 2 3 mph 1015.9mb 56f
5:12 2 3 mph 1015.8mb 56f
5:06 2 3 mph 1015.8mb 56f
5:00 3
mph
1015.8mb 56f
4:54 3
mph
1015.8mb 56f
4:48 3 5 mph 1015.8mb 56f
4:42 3
mph
1015.8mb 56f
4:36 3 5 mph 1015.8mb 56f
4:30 3 5 mph 1015.8mb 56f
4:24 3
mph
1015.8mb 56f
4:18 3 5 mph 1015.8mb 56f
4:12 3 5 mph 1015.8mb 56f
4:06 2
mph
1015.8mb 56f
4:00 1 2 mph 1015.7mb 57f
3:54 2
mph
1015.8mb 57f
3:48 2
mph
1015.7mb 57f
3:42 1 2 mph 1015.8mb 57f
3:36 1
mph
1015.8mb 57f
3:30 1 2 mph 1015.8mb 57f
3:24 1 2 mph 1015.8mb 57f
3:18 1
mph
1015.8mb 57f
3:12 1 2 mph 1015.8mb 57f
3:06 1 2 mph 1015.8mb 57f
3:00 1 2 mph 1015.8mb 57f
2:54 2
mph
1015.8mb 57f
2:48 2 3 mph 1015.9mb 57f
2:42 2
mph
1016mb 57f
2:36 1 2 mph 1016mb 57f
2:30 2
mph
1016.1mb 57f
2:24 1 2 mph 1016.2mb 57f
2:18 2
mph
1016.2mb 57f
2:12 2
mph
1016.2mb 57f
2:06 2
mph
1016.2mb 57f
2:00 2
mph
1016.2mb 57f
1:54 2
mph
1016.2mb 57f
1:48 2
mph
1016.2mb 57f
1:42 2
mph
1016.2mb 57f
1:36 1 2 mph 1016.3mb 57f
1:30 1 2 mph 1016.3mb 57f
1:24 2
mph
1016.2mb 58f
1:18 2 3 mph 1016.3mb 57f
1:12 3
mph
1016.4mb 57f
1:06 2 3 mph 1016.4mb 57f
1:00 2 3 mph 1016.4mb 58f
12:54 2 3 mph 1016.4mb 58f
12:48 3 5 mph 1016.5mb 57f
12:42 3
mph
1016.5mb 57f
12:36 3 5 mph 1016.4mb 58f
12:30 5
mph
1016.3mb 58f
12:24 3 5 mph 1016.4mb 57f
12:12 3 5 mph 1016.5mb 58f
12:06 5
mph
1016.5mb 58f
12:00 5
mph
1016.5mb 58f
sam. 03/25 11:54 5
mph
1016.5mb 58f
11:48 3 5 mph 1016.6mb 58f
11:42 5
mph
1016.6mb 58f
11:36 5 6 mph 1016.6mb 58f
11:30 5 6 mph 1016.6mb 58f
11:24 5 6 mph 1016.8mb 58f
11:18 5 6 mph 1016.9mb 58f
11:12 5 6 mph 1016.8mb 58f
11:06 5 6 mph 1016.9mb 58f
11:00 5 6 mph 1016.9mb 58f
10:54 5 6 mph 1016.9mb 58f
10:48 5
mph
1017mb -
10:42 5 6 mph 1017mb -
10:36 5
mph
1017.1mb -
10:30 3 5 mph 1017.1mb 58f
10:24 5
mph
1017.1mb 58f
10:18 5
mph
1017.2mb 58f
10:12 5
mph
1017.2mb 58f
10:06 5
mph
1017.1mb 58f
10:00 5 6 mph 1017.1mb 58f
9:54 5 6 mph 1017.1mb 58f
9:48 5 6 mph 1017.1mb 58f
9:42 5 6 mph 1017.2mb 58f
9:36 5 6 mph 1017.2mb 58f
9:30 6 7 mph 1017.2mb 59f
9:24 6 7 mph 1017.1mb 58f
9:18 6
mph
1017.1mb 58f
9:12 6
mph
1017mb 58f
9:06 5 6 mph 1017mb 59f
9:00 6 7 mph 1017mb 59f
8:54 5 6 mph 1016.9mb 59f
8:48 5 7 mph 1016.9mb 60f
8:42 5 7 mph 1016.8mb 60f
8:36 7 9 mph 1016.7mb 60f
8:30 8 10 mph 1016.6mb 60f
8:24 8 9 mph 1016.6mb 60f
8:18 7 9 mph 1016.6mb 60f
8:12 7 9 mph 1016.6mb 60f
8:06 7 9 mph 1016.5mb 60f
8:00 7 9 mph 1016.4mb 60f
7:54 6 7 mph 1016.5mb 60f
7:48 5 6 mph 1016.5mb 60f
7:42 6 7 mph 1016.4mb 60f
7:36 6 8 mph 1016.4mb 60f
7:30 8 10 mph 1016.4mb 60f
7:24 10 11 mph 1016.3mb 60f
7:18 10 11 mph 1016.3mb 61f
7:12 9 11 mph 1016.3mb 61f
7:06 6 7 mph 1016.3mb 60f
7:00 6 9 mph 1016.3mb 60f
6:54 8 10 mph 1016.3mb 60f
6:48 8 10 mph 1016.4mb 60f
6:42 8 10 mph 1016.3mb 60f
6:36 7 9 mph 1016.3mb 61f
6:30 8 10 mph 1016.3mb 61f
6:24 9 13 mph 1016.3mb 62f
6:18 10 14 mph 1016.3mb 62f
6:12 13 15 mph 1016.1mb 61f
6:06 9 14 mph 1016.1mb 62f
6:00 10 14 mph 1016.2mb 63f
5:54 13 16 mph 1016.2mb 62f
5:48 14 16 mph 1016mb 62f
5:42 15 17 mph 1016mb 62f
5:36 13 15 mph 1016mb 62f
5:30 14 18 mph 1016mb 62f
5:24 16 18 mph 1015.9mb 62f
5:18 11 16 mph 1016.1mb 63f
5:12 14 18 mph 1016mb 62f
5:06 14 20 mph 1016.1mb 62f
5:00 14 18 mph 1016mb 63f
4:54 14 16 mph 1016.1mb 63f
4:48 11 16 mph 1016.2mb 63f
4:42 13 17 mph 1016mb 63f
4:36 13 17 mph 1016.1mb 64f
4:30 13 17 mph 1016.2mb 64f
4:24 13 18 mph 1016.3mb 63f
4:18 14 20 mph 1016.1mb 63f
4:12 14 17 mph 1016.1mb 63f
4:06 15 18 mph 1016.1mb 63f
4:00 16 17 mph 1016.2mb 63f
3:54 15 17 mph 1016.3mb 64f
3:48 15 16 mph 1016.4mb 64f
3:42 14 15 mph 1016.6mb 64f
3:30 14 16 mph 1016.6mb 64f
3:24 13 15 mph 1016.8mb 64f
3:18 13 14 mph 1016.8mb 64f
3:12 13 15 mph 1016.9mb 64f
3:06 14 16 mph 1017mb 64f
3:00 14 16 mph 1017.1mb 64f
2:54 14 15 mph 1017.3mb 64f
2:42 13 15 mph 1017.4mb 63f
2:36 14 15 mph 1017.1mb 63f
2:30 14 15 mph 1017.3mb 64f
2:24 14 16 mph 1017.4mb 64f
2:18 15 16 mph 1017.5mb 64f
2:12 15 17 mph 1017.5mb 64f
2:06 16 17 mph 1017.7mb 63f
2:00 15 17 mph 1017.7mb 62f
1:54 14 17 mph 1017.5mb 61f
1:48 16 17 mph 1018mb 62f
1:42 16 17 mph 1017.9mb 62f
1:36 16 17 mph 1018mb 62f
1:30 16 17 mph 1018.1mb 62f
1:24 14 16 mph 1018.1mb 61f
1:18 11 14 mph 1018.1mb 60f
1:12 13 14 mph 1018mb 60f
1:06 14 15 mph 1018.4mb 60f
1:00 14
mph
1018.3mb 60f
12:54 13 14 mph 1018.3mb 60f
12:48 11 13 mph 1018.3mb 60f
12:42 11 13 mph 1018.5mb 61f
12:36 10 13 mph 1018.5mb 60f
12:30 10 11 mph 1018.6mb 60f
12:24 10 11 mph 1018.6mb 60f
12:18 10 11 mph 1018.7mb 61f
12:12 9 10 mph 1018.8mb 61f
12:06 9 10 mph 1018.9mb 60f
12:00 9 10 mph 1018.9mb 60f
11:54 9 10 mph 1019mb 60f
11:48 9 11 mph 1018.9mb 59f
11:42 10 11 mph 1018.8mb 59f
11:36 10 11 mph 1018.8mb 60f
11:30 10 11 mph 1019mb 60f
11:24 9 10 mph 1018.9mb 61f
11:18 9 10 mph 1018.9mb 62f
11:12 8 9 mph 1019.3mb 62f
11:06 8 9 mph 1019.2mb 62f
11:00 8 9 mph 1019.1mb 62f
10:54 8 9 mph 1019.2mb 62f
10:48 8 9 mph 1019.2mb 61f
10:42 8
mph
1018.9mb 62f
10:36 7 8 mph 1019.3mb 62f
10:30 7 8 mph 1019.3mb 62f
10:24 7
mph
1019.5mb 62f
10:18 6
mph
1019.6mb 61f
10:12 6 7 mph 1019.6mb 61f
10:06 6 7 mph 1019.7mb 60f
10:00 7
mph
1019.6mb 60f
9:54 6 7 mph 1019.6mb 60f
9:48 6 7 mph 1019.6mb 60f
9:36 5 6 mph 1019.7mb 60f
9:30 5 6 mph 1019.8mb 59f
9:24 6
mph
1019.9mb 59f
9:18 6
mph
1019.9mb 59f
9:12 5 6 mph 1019.9mb 59f
9:06 5 6 mph 1019.9mb 59f
9:00 3 6 mph 1019.9mb 59f
8:54 3
mph
1019.9mb 59f
8:48 2 3 mph 1019.8mb 59f
8:42 2 3 mph 1019.7mb 59f
8:36 2
mph
1019.7mb 59f
8:30 1 2 mph 1019.8mb 59f
8:24 1 2 mph 1019.8mb 59f
8:18 1 3 mph 1019.9mb 59f
8:12 3 6 mph 1019.8mb 59f
8:06 2 5 mph 1019.6mb 59f
8:00 3 5 mph 1019.6mb 59f
7:54 5
mph
1019.6mb 59f
7:48 6 7 mph 1019.6mb 59f
7:42 6 7 mph 1019.7mb 59f
7:36 6 7 mph 1019.5mb 58f
7:30 6 7 mph 1019.4mb 58f
7:24 7 9 mph 1019.4mb 58f
7:18 7 8 mph 1019.4mb 58f
7:12 7 8 mph 1019.3mb 58f
7:06 7 9 mph 1019.3mb 58f
7:00 8 9 mph 1019.3mb 58f
6:54 7 9 mph 1019.3mb 58f
6:48 7 8 mph 1019.2mb 58f
6:42 8 10 mph 1019.3mb 58f
6:36 8 10 mph 1019.1mb 58f
6:30 8 9 mph 1019.1mb 57f
6:24 9 11 mph 1019mb 57f
6:18 9 11 mph 1019mb 57f
6:12 9 11 mph 1019mb 57f
6:06 9 11 mph 1019mb 58f
6:00 10 13 mph 1019mb 58f
5:54 9 15 mph 1019mb 58f
5:48 9 11 mph 1019.1mb 58f
5:42 11 15 mph 1019.1mb 58f
5:36 10 14 mph 1019mb 58f
5:30 13 16 mph 1019mb 58f
5:24 9 13 mph 1018.9mb 58f
5:18 9 11 mph 1018.8mb 58f
5:12 7 9 mph 1018.7mb 58f
5:06 5 6 mph 1018.7mb 58f
5:00 5 7 mph 1018.6mb 58f
4:54 7 8 mph 1018.7mb 58f
4:48 8 11 mph 1018.6mb 58f
4:42 11 15 mph 1018.7mb 58f
4:36 10 14 mph 1018.8mb 58f
4:30 9 13 mph 1018.9mb 58f
4:24 10 13 mph 1019mb 58f
4:18 8 11 mph 1019.1mb 58f
4:12 8 11 mph 1019.2mb 58f
4:06 10 14 mph 1019.2mb 58f
4:00 10 16 mph 1019.1mb 58f
3:54 11 15 mph 1019.3mb 58f
3:48 9 13 mph 1019.4mb 58f
3:42 10 14 mph 1019.4mb 58f
3:36 10 13 mph 1019.3mb 58f
3:30 8 10 mph 1019.5mb 58f
3:24 9 13 mph 1019.6mb 58f
3:18 8 13 mph 1019.6mb 58f
3:12 10 14 mph 1019.7mb 58f
3:06 11 14 mph 1019.9mb 58f
3:00 9 14 mph 1019.9mb 58f
2:54 7 9 mph 1020mb 58f
2:48 9 11 mph 1020.1mb 58f
2:42 8 10 mph 1020.1mb 58f
2:36 8 11 mph 1020.1mb 58f
2:30 8 10 mph 1020.1mb 58f
2:24 6 8 mph 1020.1mb 58f
2:18  -  2 mph 1019.8mb 58f
2:12  -  2 mph 1019.6mb 58f
2:06  -  2 mph 1019.6mb 58f
2:00 5 7 mph 1019.6mb 58f
1:54 7 8 mph 1019.9mb 58f
1:48 6 7 mph 1020.2mb 58f
1:42 5 7 mph 1020.3mb 58f
1:36 3 6 mph 1020.1mb 58f
1:30 6 7 mph 1020.6mb 59f
1:24 6 7 mph 1020.9mb 59f
1:18 6 7 mph 1021.1mb 59f
1:12 6 8 mph 1021.1mb 59f
1:06 7 10 mph 1021.2mb 59f
1:00 6 11 mph 1021.2mb 59f
12:54 2 5 mph 1021.2mb 59f
12:48 1 2 mph 1021.2mb 58f
12:42 1 2 mph 1021.2mb 59f
12:36 2 3 mph 1021.2mb 58f
12:30  -  2 mph 1021.2mb 58f
12:24  -  1 mph 1021.2mb 58f
12:18 1 3 mph 1021.3mb 58f
12:12 2 3 mph 1021.3mb 58f
12:06 2 3 mph 1021.4mb 58f
12:00 1 2 mph 1021.4mb 58f
ven. 03/24 11:54 3 5 mph 1021.6mb 58f
11:48 3 5 mph 1021.6mb -
11:42 3 6 mph 1021.5mb -
11:36 3
mph
1021.5mb -
11:30 3
mph
1021.5mb 58f
11:24 2 3 mph 1021.5mb 58f
11:18 3 5 mph 1021.5mb 58f
11:12 1 2 mph 1021.5mb 58f
11:06 2 5 mph 1021.5mb 58f
11:00 3 5 mph 1021.5mb 58f
10:54 3 5 mph 1021.6mb 58f
10:48 5 6 mph 1021.7mb 58f
10:42 6
mph
1021.7mb 58f
10:36 6 7 mph 1021.6mb 58f
10:30 6 8 mph 1021.6mb 58f
10:24 6 8 mph 1021.6mb 58f
10:18 7 9 mph 1021.7mb 58f
10:12 8 10 mph 1021.6mb 58f
10:06 7 10 mph 1021.7mb 58f
10:00 8 10 mph 1021.7mb 58f
9:54 8 11 mph 1021.7mb 59f
9:48 6 8 mph 1021.6mb 59f
9:42 6 8 mph 1021.6mb 59f
9:36 6 8 mph 1021.6mb 59f
9:30 6 8 mph 1021.6mb 59f
9:24 5 6 mph 1021.5mb 59f
9:18 2 6 mph 1021.4mb 60f
9:12 2 3 mph 1021.4mb 60f
9:06 3 5 mph 1021.4mb 60f
9:00 5 6 mph 1021.3mb 60f
8:54 3 5 mph 1021.3mb 60f
8:48 3 5 mph 1021.2mb 60f
8:42 2 5 mph 1021.2mb 60f
8:36 3 6 mph 1021mb 60f
8:30 6 7 mph 1021mb 60f
8:24 6 8 mph 1020.9mb 61f
8:18 9 13 mph 1020.9mb 61f
8:12 11 15 mph 1021mb 62f
8:06 13 16 mph 1020.9mb 62f
8:00 14 17 mph 1020.9mb 61f
7:54 14 15 mph 1020.9mb 61f
7:48 15 17 mph 1020.7mb 61f
7:42 11 15 mph 1020.7mb 61f
7:36 5 9 mph 1020.7mb 60f
7:30 1 3 mph 1020.7mb 60f
7:24 6 8 mph 1020.7mb 60f
7:18 9 11 mph 1020.7mb 60f
7:12 8 11 mph 1020.7mb 60f
7:06 7 10 mph 1020.6mb 60f
7:00 7 10 mph 1020.6mb 60f
6:54 10 13 mph 1020.7mb 60f
6:48 9 11 mph 1020.6mb 61f
6:42 9 11 mph 1020.6mb 61f
6:36 10 14 mph 1020.6mb 61f
6:30 10 13 mph 1020.5mb 62f
6:24 10 13 mph 1020.6mb 62f
6:18 10 14 mph 1020.4mb 63f
6:12 10 14 mph 1020.5mb 64f
6:06 9 14 mph 1020.6mb 64f
6:00 8 11 mph 1020.6mb 65f
5:54 8 11 mph 1020.5mb 65f
5:48 7 9 mph 1020.5mb 66f
5:42 7 9 mph 1020.6mb 65f
5:36 10 14 mph 1020.5mb 64f
5:30 11 16 mph 1020.5mb 64f
5:24 9 14 mph 1020.5mb 65f
5:18 8 10 mph 1020.6mb 64f
5:12 9 11 mph 1020.4mb 64f
5:06 9 11 mph 1020.6mb 65f
5:00 10 13 mph 1020.7mb 65f
4:54 10 13 mph 1020.8mb 65f
4:48 10 14 mph 1020.7mb 65f
4:42 9 14 mph 1020.8mb 65f
4:36 8 15 mph 1020.7mb 66f
4:30 7 11 mph 1021mb 66f
4:24 9 13 mph 1021.2mb 66f
4:18 10 14 mph 1021.1mb 65f
4:12 11 15 mph 1021mb 66f
4:06 14 16 mph 1021mb 65f
4:00 14 16 mph 1021.1mb 65f
3:54 15 18 mph 1021.2mb 65f
3:48 14 17 mph 1021.3mb 65f
3:42 14 20 mph 1021.4mb 64f
3:36 15 20 mph 1021.5mb 65f
3:30 15 18 mph 1021.5mb 65f
3:24 15 20 mph 1021.5mb 65f
3:18 15 18 mph 1021.5mb 65f
3:12 14 18 mph 1021.5mb 65f
3:06 15 21 mph 1021.5mb 65f
3:00 15 20 mph 1021.3mb 65f
2:54 15 21 mph 1021.5mb 65f
2:48 17 20 mph 1021.5mb 64f
2:42 16 18 mph 1021.4mb 64f
2:36 16 18 mph 1021.5mb 64f
2:30 15 17 mph 1021.6mb 63f
2:24 16 17 mph 1021.7mb 64f
2:18 14 17 mph 1021.8mb 63f
2:12 13 16 mph 1021.8mb 63f
2:06 14 15 mph 1021.8mb 64f
2:00 13 15 mph 1021.8mb 64f
1:54 11 13 mph 1022mb 64f
1:48 11 13 mph 1022mb 64f
1:42 10 13 mph 1022.2mb 64f
1:36 11 14 mph 1022.4mb 64f
1:30 13 14 mph 1022.5mb 64f
1:24 14
mph
1022.6mb 64f
1:18 14 15 mph 1022.7mb 64f
1:12 13 14 mph 1022.8mb 64f
1:06 11 13 mph 1022.8mb 64f
1:00 13 14 mph 1022.9mb 64f
12:54 13 14 mph 1022.9mb 64f
12:48 13 14 mph 1023mb 64f
12:42 11 13 mph 1023.1mb 64f
12:36 11 13 mph 1023.2mb 64f
12:30 10 11 mph 1023.4mb 64f
12:24 9 10 mph 1023.5mb 64f
12:18 10
mph
1023.6mb 63f
12:12 9 10 mph 1023.4mb 61f